Time;durP1;ratioP1;P1;durP2;ratioP2;P2;SDS_P1;SDS_P2;PMS_P1;PMS_P2;Temp;Humidity;BMP_temperature;BMP_pressure;BME280_temperature;BME280_humidity;BME280_pressure;Samples;Min_cycle;Max_cycle;Signal;HPM_P1;HPM_P2
2022/05/30 00:00:07;;;;;;;5.57;1.50;;;9.40;99.90;;;;;;5026040;28;20045;-75
2022/05/30 00:02:33;;;;;;;5.35;1.58;;;9.40;99.90;;;;;;5044060;28;20116;-71
2022/05/30 00:05:00;;;;;;;5.03;1.23;;;9.40;99.90;;;;;;5025562;28;20025;-74
2022/05/30 00:07:26;;;;;;;8.85;1.63;;;9.40;99.90;;;;;;5043776;28;20034;-72
2022/05/30 00:09:51;;;;;;;5.70;1.33;;;9.40;99.90;;;;;;5043401;28;20052;-72
2022/05/30 00:12:17;;;;;;;3.35;1.05;;;9.30;99.90;;;;;;5043184;28;20105;-73
2022/05/30 00:14:45;;;;;;;2.17;1.00;;;9.30;99.90;;;;;;5043852;28;20029;-74
2022/05/30 00:17:11;;;;;;;10.32;1.65;;;9.30;99.90;;;;;;5043681;28;20034;-75
2022/05/30 00:19:38;;;;;;;3.08;1.02;;;9.30;99.90;;;;;;5025575;28;20025;-74
2022/05/30 00:22:06;;;;;;;7.90;1.08;;;9.30;99.90;;;;;;5042889;28;20375;-74
2022/05/30 00:24:32;;;;;;;5.50;1.20;;;9.30;99.90;;;;;;5043766;28;20021;-73
2022/05/30 00:26:59;;;;;;;2.58;1.13;;;9.30;99.90;;;;;;5043130;28;20029;-73
2022/05/30 00:29:25;;;;;;;2.22;1.13;;;9.40;99.90;;;;;;5043357;28;20056;-74
2022/05/30 00:31:51;;;;;;;4.05;1.00;;;9.50;99.90;;;;;;5043398;28;20039;-72
2022/05/30 00:34:20;;;;;;;9.95;1.35;;;9.40;99.90;;;;;;5043280;28;20089;-74
2022/05/30 00:36:46;;;;;;;4.47;1.02;;;9.30;99.90;;;;;;5043224;28;20041;-71
2022/05/30 00:39:14;;;;;;;2.80;1.00;;;9.40;99.90;;;;;;5042972;28;20084;-74
2022/05/30 00:41:40;;;;;;;1.10;0.70;;;9.40;99.90;;;;;;5043490;28;20060;-74
2022/05/30 00:44:05;;;;;;;2.47;1.02;;;9.30;99.90;;;;;;5043111;28;20025;-71
2022/05/30 00:46:31;;;;;;;4.22;1.10;;;9.40;99.90;;;;;;5043257;28;20051;-73
2022/05/30 00:49:01;;;;;;;3.78;0.77;;;9.30;99.90;;;;;;5042668;28;20018;-73
2022/05/30 00:51:29;;;;;;;1.20;0.70;;;9.40;99.90;;;;;;5042505;28;20482;-73
2022/05/30 00:53:57;;;;;;;1.85;1.05;;;9.40;99.90;;;;;;5042726;28;20026;-74
2022/05/30 00:56:28;;;;;;;1.77;0.80;;;9.30;99.90;;;;;;5042625;28;20030;-74
2022/05/30 00:58:54;;;;;;;4.82;1.23;;;9.50;99.90;;;;;;5042864;28;20029;-73
2022/05/30 01:01:20;;;;;;;3.03;0.95;;;9.40;99.90;;;;;;5042459;28;20036;-73
2022/05/30 01:06:37;;;;;;;10.02;1.15;;;9.50;99.90;;;;;;5042570;28;20033;-73
2022/05/30 01:09:08;;;;;;;7.82;1.60;;;9.40;99.90;;;;;;5024915;28;20029;-74
2022/05/30 01:11:59;;;;;;;7.30;1.35;;;9.40;99.90;;;;;;5042365;28;20040;-73
2022/05/30 01:14:29;;;;;;;0.82;0.50;;;9.40;99.90;;;;;;5042589;28;20056;-74
2022/05/30 01:16:55;;;;;;;1.67;0.75;;;9.40;99.90;;;;;;5042367;28;20050;-74
2022/05/30 01:19:48;;;;;;;4.70;0.93;;;9.40;99.90;;;;;;5041891;28;20022;-74
2022/05/30 01:22:32;;;;;;;5.45;1.55;;;9.40;99.90;;;;;;5025171;28;20025;-74
2022/05/30 01:25:25;;;;;;;6.00;1.30;;;9.40;99.90;;;;;;5042506;28;20470;-71
2022/05/30 01:27:59;;;;;;;6.10;1.00;;;9.40;99.90;;;;;;5041958;28;20033;-73
2022/05/30 01:30:26;;;;;;;6.25;1.27;;;9.40;99.90;;;;;;5042408;28;20022;-72
2022/05/30 01:32:56;;;;;;;8.73;1.42;;;9.40;99.90;;;;;;5041983;28;20013;-73
2022/05/30 01:35:26;;;;;;;5.72;1.00;;;9.40;99.90;;;;;;5042007;28;20038;-74
2022/05/30 01:37:53;;;;;;;1.52;0.73;;;9.40;99.90;;;;;;5041994;28;20087;-74
2022/05/30 01:40:18;;;;;;;2.67;1.20;;;9.40;99.90;;;;;;5041780;28;20026;-74
2022/05/30 01:42:45;;;;;;;3.60;1.15;;;9.40;99.90;;;;;;5042404;28;20045;-72
2022/05/30 01:45:11;;;;;;;4.03;1.45;;;9.40;99.90;;;;;;5041312;28;20037;-73
2022/05/30 01:47:36;;;;;;;2.55;1.02;;;9.40;99.90;;;;;;5042414;28;20029;-73
2022/05/30 01:50:04;;;;;;;4.30;1.30;;;9.40;99.90;;;;;;5042079;28;20089;-73
2022/05/30 01:52:30;;;;;;;3.53;1.30;;;9.40;99.90;;;;;;5041726;28;20025;-74
2022/05/30 01:54:55;;;;;;;3.75;0.95;;;9.40;99.90;;;;;;5041895;28;20026;-74
2022/05/30 01:57:21;;;;;;;4.70;1.35;;;9.40;99.90;;;;;;5041392;28;20030;-73
2022/05/30 01:59:46;;;;;;;2.15;0.95;;;9.40;99.90;;;;;;5042083;28;20028;-71
2022/05/30 02:02:12;;;;;;;6.40;1.20;;;9.40;99.90;;;;;;5042191;28;20049;-74
2022/05/30 02:04:38;;;;;;;5.15;1.42;;;9.30;99.90;;;;;;5041664;28;20034;-73
2022/05/30 02:07:05;;;;;;;1.70;1.02;;;9.30;99.90;;;;;;5024097;28;20021;-73
2022/05/30 02:09:31;;;;;;;1.73;1.02;;;9.30;99.90;;;;;;5041496;28;20029;-72
2022/05/30 02:11:56;;;;;;;3.83;1.25;;;9.30;99.90;;;;;;5040616;28;20079;-72
2022/05/30 02:14:23;;;;;;;3.13;0.98;;;9.30;99.90;;;;;;5041830;28;20030;-71
2022/05/30 02:17:01;;;;;;;4.82;1.25;;;9.30;99.90;;;;;;5041349;28;20091;-73
2022/05/30 02:19:32;;;;;;;2.15;1.02;;;9.30;99.90;;;;;;5041737;28;20030;-73
2022/05/30 02:21:58;;;;;;;2.22;1.13;;;9.30;99.90;;;;;;5041372;28;20018;-72
2022/05/30 02:24:24;;;;;;;5.32;1.65;;;9.30;99.90;;;;;;5041763;28;20144;-73
2022/05/30 02:26:50;;;;;;;8.10;1.98;;;9.20;99.90;;;;;;5041681;28;20093;-73
2022/05/30 02:29:16;;;;;;;2.78;1.38;;;9.20;99.90;;;;;;5041858;28;20089;-72
2022/05/30 02:31:42;;;;;;;7.97;1.70;;;9.20;99.90;;;;;;5041651;28;20030;-74
2022/05/30 02:36:56;;;;;;;2.05;0.68;;;9.20;99.90;;;;;;5041131;28;20104;-74
2022/05/30 02:39:23;;;;;;;4.05;1.25;;;9.10;99.90;;;;;;5041669;28;20049;-73
2022/05/30 02:41:50;;;;;;;11.88;1.45;;;9.10;99.90;;;;;;5041386;28;20049;-73
2022/05/30 02:44:19;;;;;;;1.25;0.80;;;9.20;99.90;;;;;;5023660;28;20111;-73
2022/05/30 02:46:48;;;;;;;6.13;1.80;;;9.20;99.90;;;;;;5040986;28;20026;-74
2022/05/30 02:49:15;;;;;;;4.00;1.00;;;9.20;99.90;;;;;;5041328;28;20029;-73
2022/05/30 02:51:41;;;;;;;1.67;0.80;;;9.10;99.90;;;;;;5041585;28;20088;-74
2022/05/30 02:54:07;;;;;;;5.50;1.15;;;9.10;99.90;;;;;;5041696;28;20018;-74
2022/05/30 02:56:33;;;;;;;9.65;1.20;;;9.10;99.90;;;;;;5042179;28;20068;-73
2022/05/30 02:58:59;;;;;;;6.05;1.73;;;9.20;99.90;;;;;;5045285;28;20025;-72
2022/05/30 03:01:25;;;;;;;4.75;0.88;;;9.10;99.90;;;;;;5045035;28;20032;-72
2022/05/30 03:03:50;;;;;;;2.38;0.85;;;9.10;99.90;;;;;;5027224;28;20053;-75
2022/05/30 03:06:16;;;;;;;5.13;0.95;;;9.10;99.90;;;;;;5045366;28;20029;-73
2022/05/30 03:08:42;;;;;;;2.80;1.17;;;9.10;99.90;;;;;;5045296;28;20041;-75
2022/05/30 03:11:08;;;;;;;3.13;1.30;;;9.00;99.90;;;;;;5044727;28;20175;-73
2022/05/30 03:13:34;;;;;;;2.08;0.73;;;9.00;99.90;;;;;;5045194;28;20490;-74
2022/05/30 03:15:59;;;;;;;3.25;1.17;;;9.10;99.90;;;;;;5044923;28;20079;-73
2022/05/30 03:18:25;;;;;;;3.53;1.23;;;9.00;99.90;;;;;;5044900;28;20045;-75
2022/05/30 03:20:51;;;;;;;4.22;1.15;;;9.00;99.90;;;;;;5044541;28;21049;-72
2022/05/30 03:23:16;;;;;;;1.48;0.50;;;9.00;99.90;;;;;;5044781;28;20055;-72
2022/05/30 03:25:42;;;;;;;4.35;1.02;;;9.00;99.90;;;;;;5044762;28;20055;-74
2022/05/30 03:28:08;;;;;;;3.15;1.05;;;9.00;99.90;;;;;;5044694;28;20030;-73
2022/05/30 03:30:40;;;;;;;1.33;0.63;;;9.00;99.90;;;;;;5026348;28;20053;-73
2022/05/30 03:33:08;;;;;;;4.05;1.15;;;8.90;99.90;;;;;;5044181;28;20460;-73
2022/05/30 03:35:35;;;;;;;1.23;0.65;;;8.90;99.90;;;;;;5026594;28;20524;-72
2022/05/30 03:38:02;;;;;;;3.08;1.00;;;8.90;99.90;;;;;;5044115;28;20033;-76
2022/05/30 03:40:28;;;;;;;3.65;1.00;;;8.90;99.90;;;;;;5043869;28;20030;-74
2022/05/30 03:42:54;;;;;;;3.80;1.27;;;8.90;99.90;;;;;;5026464;28;20024;-72
2022/05/30 03:45:22;;;;;;;3.45;1.23;;;8.90;99.90;;;;;;5043770;28;20057;-72
2022/05/30 03:47:49;;;;;;;11.02;1.00;;;8.90;99.90;;;;;;5044265;28;20033;-74
2022/05/30 03:50:18;;;;;;;15.10;1.30;;;8.90;99.90;;;;;;5026104;28;20108;-73
2022/05/30 03:52:45;;;;;;;6.93;1.15;;;8.90;99.90;;;;;;5044146;28;20049;-74
2022/05/30 03:55:14;;;;;;;2.65;1.40;;;8.90;99.90;;;;;;5043978;28;20021;-73
2022/05/30 03:57:41;;;;;;;2.13;1.13;;;8.90;99.90;;;;;;5026010;28;20022;-71
2022/05/30 04:00:13;;;;;;;3.53;1.33;;;8.90;99.90;;;;;;5043740;28;20062;-73
2022/05/30 04:02:38;;;;;;;9.55;1.30;;;8.90;99.90;;;;;;5044288;28;20184;-73
2022/05/30 04:05:05;;;;;;;10.43;1.33;;;8.90;99.90;;;;;;5043904;28;20029;-73
2022/05/30 04:07:31;;;;;;;3.35;0.93;;;8.90;99.90;;;;;;5043923;28;20124;-73
2022/05/30 04:09:56;;;;;;;2.33;0.93;;;8.90;99.90;;;;;;5042769;28;20025;-72
2022/05/30 04:12:22;;;;;;;4.50;1.20;;;8.90;99.90;;;;;;5043320;28;20045;-73
2022/05/30 04:14:55;;;;;;;2.72;1.00;;;8.90;99.90;;;;;;5043703;28;20080;-74
2022/05/30 04:17:22;;;;;;;2.05;0.65;;;8.90;99.90;;;;;;5043641;28;20037;-72
2022/05/30 04:19:47;;;;;;;17.48;1.15;;;8.90;99.90;;;;;;5043231;28;20028;-72
2022/05/30 04:22:13;;;;;;;5.55;0.93;;;8.90;99.90;;;;;;5043837;28;20030;-72
2022/05/30 04:24:39;;;;;;;1.40;0.85;;;8.90;99.90;;;;;;5043300;28;20053;-71
2022/05/30 04:27:05;;;;;;;4.72;0.73;;;8.90;99.90;;;;;;5043419;28;20116;-71
2022/05/30 04:29:31;;;;;;;4.20;1.10;;;8.90;99.90;;;;;;5043379;28;20033;-71
2022/05/30 04:31:56;;;;;;;13.20;1.50;;;8.90;99.90;;;;;;5024933;28;20021;-74
2022/05/30 04:34:22;;;;;;;3.05;1.05;;;8.90;99.90;;;;;;5043189;28;20025;-72
2022/05/30 04:36:48;;;;;;;2.42;0.93;;;8.90;99.90;;;;;;5043235;28;20051;-75
2022/05/30 04:39:14;;;;;;;1.15;0.68;;;8.90;99.90;;;;;;5025402;28;20017;-72
2022/05/30 04:41:40;;;;;;;4.20;1.65;;;8.90;99.90;;;;;;5043530;28;20422;-73
2022/05/30 04:44:06;;;;;;;4.88;0.60;;;8.90;99.90;;;;;;5043103;28;20056;-72
2022/05/30 04:46:31;;;;;;;2.63;0.82;;;8.90;99.90;;;;;;5043392;28;20099;-71
2022/05/30 04:48:58;;;;;;;4.60;1.40;;;8.90;99.90;;;;;;5043203;28;20029;-74
2022/05/30 04:51:23;;;;;;;0.95;0.50;;;8.90;99.90;;;;;;5042466;28;20026;-73
2022/05/30 04:53:49;;;;;;;2.70;0.75;;;9.00;99.90;;;;;;5042970;28;20028;-73
2022/05/30 04:56:17;;;;;;;2.15;0.70;;;9.00;99.90;;;;;;5042974;28;20051;-71
2022/05/30 04:58:44;;;;;;;2.50;0.73;;;9.00;99.90;;;;;;5042873;28;20094;-72
2022/05/30 05:01:10;;;;;;;2.60;1.00;;;9.00;99.90;;;;;;5025015;28;20044;-73
2022/05/30 05:03:37;;;;;;;2.55;1.00;;;9.00;99.90;;;;;;5043017;28;20037;-75
2022/05/30 05:06:15;;;;;;;1.27;0.70;;;9.00;99.90;;;;;;5042345;28;20018;-72
2022/05/30 05:08:44;;;;;;;3.95;1.00;;;9.10;99.90;;;;;;5042718;28;20544;-74
2022/05/30 05:11:12;;;;;;;2.35;0.90;;;9.10;99.90;;;;;;5042835;28;20093;-71
2022/05/30 05:13:39;;;;;;;2.60;0.88;;;9.10;99.90;;;;;;5042579;28;20068;-70
2022/05/30 05:16:06;;;;;;;5.35;1.48;;;9.10;99.90;;;;;;5042296;28;20061;-72
2022/05/30 05:18:32;;;;;;;1.90;0.63;;;9.00;99.90;;;;;;5042840;28;20457;-73
2022/05/30 05:20:57;;;;;;;0.70;0.60;;;9.10;99.90;;;;;;5041280;28;20033;-73
2022/05/30 05:23:23;;;;;;;2.55;0.90;;;9.10;99.90;;;;;;5040777;28;20034;-73
2022/05/30 05:25:49;;;;;;;3.13;0.82;;;9.10;99.90;;;;;;5024075;28;20417;-74
2022/05/30 05:28:15;;;;;;;2.50;0.98;;;9.20;99.90;;;;;;5022176;28;20390;-72
2022/05/30 05:30:42;;;;;;;4.47;0.98;;;9.20;99.90;;;;;;5041649;28;20025;-72
2022/05/30 05:33:09;;;;;;;3.13;0.93;;;9.10;99.90;;;;;;5041014;28;20565;-72
2022/05/30 05:35:40;;;;;;;0.73;0.60;;;9.30;99.90;;;;;;5023750;28;20041;-71
2022/05/30 05:38:05;;;;;;;3.33;0.70;;;9.30;99.90;;;;;;5041926;28;20035;-73
2022/05/30 05:40:31;;;;;;;1.02;0.43;;;9.30;99.90;;;;;;5042013;28;20049;-72
2022/05/30 05:42:56;;;;;;;5.53;1.00;;;9.30;99.90;;;;;;5040063;28;20044;-74
2022/05/30 05:45:22;;;;;;;2.85;0.70;;;9.30;99.90;;;;;;5016510;28;20041;-73
2022/05/30 05:47:48;;;;;;;0.85;0.60;;;9.30;99.90;;;;;;5041065;28;20482;-72
2022/05/30 05:50:13;;;;;;;3.25;0.80;;;9.40;99.90;;;;;;5042302;28;20469;-73
2022/05/30 05:52:39;;;;;;;8.50;0.77;;;9.40;99.90;;;;;;5042196;28;20052;-73
2022/05/30 05:55:05;;;;;;;3.00;1.13;;;9.40;99.90;;;;;;5021752;28;20131;-73
2022/05/30 05:57:31;;;;;;;2.58;1.05;;;9.50;99.90;;;;;;5040590;28;20089;-73
2022/05/30 05:59:57;;;;;;;1.08;0.75;;;9.50;99.90;;;;;;5041483;28;20029;-72
2022/05/30 06:02:23;;;;;;;3.28;0.90;;;9.50;99.90;;;;;;5041911;28;20059;-72
2022/05/30 06:04:52;;;;;;;4.45;0.60;;;9.50;99.90;;;;;;5042155;28;20156;-73
2022/05/30 06:07:18;;;;;;;1.33;0.50;;;9.60;99.90;;;;;;5041784;28;20022;-72
2022/05/30 06:09:44;;;;;;;1.10;0.65;;;9.60;99.90;;;;;;5041058;28;20037;-74
2022/05/30 06:12:10;;;;;;;4.07;0.98;;;9.60;99.90;;;;;;5041631;28;20032;-72
2022/05/30 06:14:36;;;;;;;3.55;0.52;;;9.60;99.90;;;;;;5038986;28;20076;-74
2022/05/30 06:17:03;;;;;;;6.07;0.70;;;9.60;99.90;;;;;;5040884;28;20065;-75
2022/05/30 06:19:29;;;;;;;7.65;0.82;;;9.60;99.90;;;;;;5023774;28;20486;-74
2022/05/30 06:21:55;;;;;;;4.47;1.05;;;9.70;99.90;;;;;;5039951;28;20087;-73
2022/05/30 06:24:20;;;;;;;1.77;0.88;;;9.70;99.90;;;;;;5040287;28;20076;-72
2022/05/30 06:26:46;;;;;;;0.50;0.32;;;9.80;99.90;;;;;;5041099;28;20037;-73
2022/05/30 06:29:13;;;;;;;2.38;0.90;;;9.80;99.90;;;;;;5023482;28;20048;-73
2022/05/30 06:31:40;;;;;;;4.50;1.13;;;9.90;99.90;;;;;;5042091;28;20022;-74
2022/05/30 06:34:06;;;;;;;4.53;1.10;;;9.90;99.90;;;;;;5045101;28;20100;-73
2022/05/30 06:36:33;;;;;;;12.60;1.63;;;10.00;99.90;;;;;;5026008;28;20517;-73
2022/05/30 06:38:58;;;;;;;2.88;0.85;;;10.00;99.90;;;;;;5044299;28;20033;-74
2022/05/30 06:41:31;;;;;;;0.73;0.50;;;10.00;99.90;;;;;;5026723;28;20072;-74
2022/05/30 06:44:04;;;;;;;4.07;0.95;;;10.10;99.90;;;;;;5026732;28;20446;-73
2022/05/30 06:46:33;;;;;;;0.70;0.40;;;10.20;99.90;;;;;;5045488;28;20037;-74
2022/05/30 06:48:59;;;;;;;6.95;0.98;;;10.20;99.90;;;;;;5044470;28;20022;-75
2022/05/30 06:51:27;;;;;;;1.27;0.50;;;10.30;99.90;;;;;;5025127;28;20042;-75
2022/05/30 06:53:53;;;;;;;0.85;0.55;;;10.30;99.90;;;;;;5023934;28;20034;-73
2022/05/30 06:56:21;;;;;;;0.82;0.28;;;10.40;99.90;;;;;;5024788;28;20414;-73
2022/05/30 06:58:51;;;;;;;1.10;0.60;;;10.50;99.90;;;;;;5026895;28;20037;-74
2022/05/30 07:01:21;;;;;;;1.75;0.57;;;10.60;99.90;;;;;;5043025;28;20029;-73
2022/05/30 07:03:48;;;;;;;1.45;0.63;;;10.70;99.90;;;;;;5027043;28;20025;-73
2022/05/30 07:06:20;;;;;;;0.70;0.35;;;10.60;99.90;;;;;;5045122;28;20470;-75
2022/05/30 07:08:46;;;;;;;3.03;0.70;;;10.70;99.90;;;;;;5045209;28;20492;-75
2022/05/30 07:11:18;;;;;;;1.27;0.77;;;10.60;99.90;;;;;;5044508;28;20022;-73
2022/05/30 07:13:45;;;;;;;6.32;0.55;;;10.70;99.90;;;;;;5043339;28;20241;-73
2022/05/30 07:16:12;;;;;;;3.08;0.98;;;10.70;99.90;;;;;;5042775;28;20045;-74
2022/05/30 07:18:40;;;;;;;0.98;0.60;;;10.70;99.90;;;;;;5043529;28;20076;-75
2022/05/30 07:21:10;;;;;;;2.03;0.63;;;10.70;99.90;;;;;;5024360;28;20051;-74
2022/05/30 07:23:37;;;;;;;0.63;0.63;;;10.70;99.90;;;;;;5026167;28;20123;-73
2022/05/30 07:26:07;;;;;;;1.25;0.70;;;10.80;99.90;;;;;;5044099;28;20022;-74
2022/05/30 07:28:33;;;;;;;0.82;0.55;;;10.80;99.90;;;;;;5042417;28;20033;-74
2022/05/30 07:31:06;;;;;;;1.15;0.50;;;10.80;99.90;;;;;;5044766;28;20025;-75
2022/05/30 07:33:33;;;;;;;4.97;0.60;;;10.80;99.90;;;;;;5043851;28;20041;-73
2022/05/30 07:36:02;;;;;;;1.45;0.50;;;10.90;99.90;;;;;;5044176;28;20041;-75
2022/05/30 07:38:27;;;;;;;0.55;0.55;;;11.00;99.90;;;;;;5026540;28;20404;-73
2022/05/30 07:40:53;;;;;;;2.25;0.68;;;11.10;99.90;;;;;;5041071;28;20059;-73
2022/05/30 07:43:20;;;;;;;3.33;0.85;;;11.10;99.90;;;;;;5043272;28;20037;-73
2022/05/30 07:45:46;;;;;;;1.02;0.55;;;11.20;99.90;;;;;;5043629;28;20025;-73
2022/05/30 07:48:12;;;;;;;1.95;1.08;;;11.30;99.90;;;;;;5043706;28;20030;-74
2022/05/30 07:50:38;;;;;;;0.45;0.35;;;11.30;99.90;;;;;;5042957;28;20060;-73
2022/05/30 07:53:04;;;;;;;3.45;0.47;;;11.30;99.90;;;;;;5026047;28;20057;-73
2022/05/30 07:55:30;;;;;;;3.35;1.05;;;11.40;99.90;;;;;;5025258;28;20144;-72
2022/05/30 07:58:04;;;;;;;4.45;0.57;;;11.40;99.90;;;;;;5043511;28;20052;-73
2022/05/30 08:00:32;;;;;;;1.08;0.63;;;11.40;99.90;;;;;;5042643;28;20029;-74
2022/05/30 08:02:58;;;;;;;2.25;0.75;;;11.40;99.90;;;;;;5040759;28;20072;-75
2022/05/30 08:05:24;;;;;;;6.85;0.93;;;11.50;99.90;;;;;;5043227;28;20469;-75
2022/05/30 08:07:52;;;;;;;3.92;0.80;;;11.50;99.90;;;;;;5025908;28;20033;-74
2022/05/30 08:10:19;;;;;;;4.07;1.20;;;11.60;99.90;;;;;;5043720;28;20075;-76
2022/05/30 08:12:45;;;;;;;2.08;0.50;;;11.80;99.90;;;;;;5041423;28;20060;-74
2022/05/30 08:15:17;;;;;;;7.50;0.95;;;11.90;99.90;;;;;;5025556;28;20076;-75
2022/05/30 08:17:57;;;;;;;2.17;0.93;;;12.00;99.90;;;;;;5042756;28;20026;-74
2022/05/30 08:20:24;;;;;;;2.50;0.75;;;12.20;99.90;;;;;;5024868;28;20035;-74
2022/05/30 08:22:50;;;;;;;1.63;0.68;;;12.20;99.90;;;;;;5039906;28;20049;-75
2022/05/30 08:25:18;;;;;;;5.15;0.70;;;12.20;99.90;;;;;;5025243;28;20029;-74
2022/05/30 08:27:45;;;;;;;4.38;0.57;;;12.20;99.90;;;;;;5042346;28;20097;-73
2022/05/30 08:30:15;;;;;;;0.85;0.40;;;12.30;99.90;;;;;;5023790;28;20025;-75
2022/05/30 08:32:42;;;;;;;3.97;0.95;;;12.30;99.90;;;;;;5023756;28;20036;-75
2022/05/30 08:35:10;;;;;;;7.72;0.80;;;12.30;99.90;;;;;;5042561;28;20021;-76
2022/05/30 08:37:37;;;;;;;0.40;0.38;;;12.40;99.90;;;;;;5038151;28;20034;-73
2022/05/30 08:42:56;;;;;;;7.97;0.30;;;12.50;99.90;;;;;;5043246;28;20036;-74
2022/05/30 08:45:25;;;;;;;6.95;0.52;;;12.50;99.90;;;;;;5041822;28;20018;-75
2022/05/30 08:48:01;;;;;;;0.45;0.28;;;12.50;99.90;;;;;;5024922;28;20026;-77
2022/05/30 08:50:39;;;;;;;1.70;0.50;;;12.60;99.90;;;;;;5024123;28;20026;-75
2022/05/30 08:53:17;;;;;;;0.45;0.38;;;12.80;99.90;;;;;;5025357;28;20027;-77
2022/05/30 08:55:50;;;;;;;1.42;0.28;;;12.90;99.90;;;;;;5023538;28;20136;-76
2022/05/30 08:58:41;;;;;;;0.40;0.30;;;13.00;99.90;;;;;;5032960;28;20033;-75
2022/05/30 09:01:25;;;;;;;1.10;0.22;;;12.90;99.90;;;;;;5024035;28;20035;-75
2022/05/30 09:04:08;;;;;;;0.63;0.40;;;12.90;99.90;;;;;;5022318;28;20022;-73
2022/05/30 09:06:39;;;;;;;0.88;0.30;;;13.10;99.90;;;;;;5041520;28;20021;-72
2022/05/30 09:09:18;;;;;;;0.70;0.43;;;13.20;99.90;;;;;;5041814;28;20462;-74
2022/05/30 09:11:49;;;;;;;1.55;0.60;;;13.40;99.90;;;;;;5024816;28;20021;-73
2022/05/30 09:14:25;;;;;;;0.35;0.17;;;13.60;99.90;;;;;;5042495;28;20049;-73
2022/05/30 09:16:56;;;;;;;0.73;0.50;;;13.50;99.90;;;;;;5041512;28;20115;-75
2022/05/30 09:19:24;;;;;;;1.15;0.40;;;13.40;99.90;;;;;;5039781;28;20056;-74
2022/05/30 09:21:53;;;;;;;1.30;0.63;;;13.20;99.90;;;;;;5042361;28;20021;-72
2022/05/30 09:24:20;;;;;;;1.85;0.70;;;13.10;99.90;;;;;;5041965;28;20018;-73
2022/05/30 09:26:45;;;;;;;1.55;0.50;;;13.10;99.90;;;;;;5041933;28;20585;-74
2022/05/30 09:29:27;;;;;;;1.90;0.25;;;13.00;99.90;;;;;;5038461;28;20032;-75
2022/05/30 09:32:04;;;;;;;0.35;0.32;;;13.10;99.90;;;;;;5040470;28;20580;-76
2022/05/30 09:34:37;;;;;;;0.45;0.30;;;13.30;99.90;;;;;;5023874;28;20030;-74
2022/05/30 09:37:03;;;;;;;1.02;0.28;;;13.60;99.90;;;;;;5040213;28;20085;-70
2022/05/30 09:39:40;;;;;;;0.43;0.10;;;13.70;99.90;;;;;;5040926;28;20025;-74
2022/05/30 09:42:24;;;;;;;1.05;0.40;;;13.80;99.90;;;;;;5042457;28;20022;-73
2022/05/30 09:44:56;;;;;;;2.20;0.25;;;13.80;99.90;;;;;;5041727;28;20672;-73
2022/05/30 09:47:22;;;;;;;0.50;0.30;;;14.00;99.90;;;;;;5024107;28;21437;-74
2022/05/30 09:49:51;;;;;;;0.85;0.22;;;14.20;99.90;;;;;;5039667;28;20025;-76
2022/05/30 09:52:33;;;;;;;2.08;0.40;;;14.40;99.90;;;;;;5041505;28;20017;-73
2022/05/30 09:55:01;;;;;;;1.48;0.55;;;14.40;99.90;;;;;;5040865;28;20021;-74
2022/05/30 09:57:42;;;;;;;0.65;0.40;;;14.50;99.90;;;;;;5041504;28;20033;-75
2022/05/30 10:00:16;;;;;;;4.65;0.50;;;14.40;99.90;;;;;;5041312;28;20025;-75
2022/05/30 10:02:46;;;;;;;0.43;0.38;;;14.30;99.90;;;;;;5022795;28;20040;-76
2022/05/30 10:05:21;;;;;;;0.68;0.40;;;14.30;99.90;;;;;;5041844;28;20052;-74
2022/05/30 10:07:55;;;;;;;2.80;0.60;;;14.10;99.90;;;;;;5044559;28;20025;-73
2022/05/30 10:10:25;;;;;;;1.27;0.45;;;13.90;99.90;;;;;;5042593;28;20095;-73
2022/05/30 10:12:57;;;;;;;0.75;0.22;;;13.80;99.90;;;;;;5043098;28;20060;-73
2022/05/30 10:15:30;;;;;;;1.65;0.55;;;13.60;99.90;;;;;;5044333;28;20029;-70
2022/05/30 10:18:12;;;;;;;0.93;0.47;;;13.60;99.90;;;;;;5043584;28;20028;-73
2022/05/30 10:20:45;;;;;;;1.25;0.50;;;13.40;99.90;;;;;;5025427;28;20021;-72
2022/05/30 10:30:04;;;;;;;1.85;0.65;;;13.10;99.90;;;;;;5044630;28;20028;-73
2022/05/30 10:32:48;;;;;;;0.68;0.30;;;13.10;99.90;;;;;;5045295;28;20061;-75
2022/05/30 10:35:17;;;;;;;1.67;0.43;;;13.00;99.90;;;;;;5027200;28;20120;-76
2022/05/30 10:38:21;;;;;;;0.30;0.28;;;13.00;99.90;;;;;;5043442;28;20014;-74
2022/05/30 10:41:09;;;;;;;0.40;0.30;;;13.00;99.90;;;;;;5025532;28;20072;-75
2022/05/30 10:43:58;;;;;;;1.88;0.68;;;13.00;99.90;;;;;;5044273;28;20044;-77
2022/05/30 10:46:31;;;;;;;0.08;0.08;;;13.00;99.90;;;;;;5027050;28;20037;-75
2022/05/30 10:49:09;;;;;;;0.47;0.33;;;13.10;99.90;;;;;;5045127;28;20029;-75
2022/05/30 10:52:04;;;;;;;1.80;0.30;;;13.20;99.90;;;;;;5044843;28;20132;-74
2022/05/30 10:54:29;;;;;;;1.58;0.55;;;13.30;99.90;;;;;;5038554;28;20409;-76
2022/05/30 10:57:18;;;;;;;1.02;0.40;;;13.30;99.90;;;;;;5027043;28;20061;-73
2022/05/30 11:00:04;;;;;;;0.77;0.35;;;13.40;99.90;;;;;;5044372;28;20029;-71
2022/05/30 11:03:03;;;;;;;0.60;0.50;;;13.40;99.90;;;;;;5026390;28;20028;-73
2022/05/30 11:05:52;;;;;;;2.40;0.52;;;13.60;99.90;;;;;;5044762;28;20028;-73
2022/05/30 11:08:36;;;;;;;2.72;0.40;;;13.70;99.90;;;;;;5027017;28;20029;-74
2022/05/30 11:11:16;;;;;;;1.50;0.50;;;13.60;99.90;;;;;;5026754;28;20036;-75
2022/05/30 11:14:09;;;;;;;9.70;0.93;;;13.70;99.90;;;;;;5044040;28;20046;-73
2022/05/30 11:16:51;;;;;;;0.43;0.30;;;13.70;99.90;;;;;;5006423;28;20053;-75
2022/05/30 11:19:30;;;;;;;2.63;0.60;;;13.70;99.90;;;;;;5025457;28;20025;-74
2022/05/30 11:22:13;;;;;;;1.60;0.60;;;13.70;99.90;;;;;;5044646;28;20081;-74
2022/05/30 11:24:39;;;;;;;0.40;0.30;;;13.70;99.90;;;;;;5044724;28;20032;-73
2022/05/30 11:27:08;;;;;;;2.28;0.50;;;13.70;99.90;;;;;;5044610;28;20089;-74
2022/05/30 11:29:43;;;;;;;7.72;0.60;;;13.70;99.90;;;;;;5044631;28;20025;-74
2022/05/30 11:32:25;;;;;;;1.00;0.55;;;13.60;99.90;;;;;;5044166;28;20029;-74
2022/05/30 11:35:13;;;;;;;0.77;0.55;;;13.60;99.90;;;;;;5026533;28;20038;-74
2022/05/30 11:38:13;;;;;;;10.43;0.55;;;13.60;99.90;;;;;;5044603;28;20042;-75
2022/05/30 11:41:25;;;;;;;1.10;0.35;;;13.60;99.90;;;;;;5026199;28;20029;-73
2022/05/30 11:44:06;;;;;;;2.20;0.50;;;13.60;99.90;;;;;;5044111;28;20040;-75
2022/05/30 11:46:57;;;;;;;1.45;0.63;;;13.70;99.90;;;;;;5042885;28;21392;-74
2022/05/30 11:49:48;;;;;;;0.50;0.50;;;13.80;99.90;;;;;;5026118;28;20025;-74
2022/05/30 11:52:45;;;;;;;1.65;0.60;;;13.90;99.90;;;;;;5026712;28;20032;-74
2022/05/30 11:55:43;;;;;;;1.65;0.65;;;14.10;99.90;;;;;;5024929;28;20021;-75
2022/05/30 11:58:13;;;;;;;8.02;0.52;;;14.40;99.90;;;;;;5043883;28;20037;-75
2022/05/30 12:00:45;;;;;;;0.88;0.40;;;14.40;99.90;;;;;;5044585;28;20030;-75
2022/05/30 12:03:24;;;;;;;0.43;0.35;;;14.40;99.90;;;;;;5042807;28;20116;-74
2022/05/30 12:06:24;;;;;;;0.35;0.30;;;14.40;99.90;;;;;;5042577;28;20104;-77
2022/05/30 12:09:32;;;;;;;1.75;0.43;;;14.50;99.90;;;;;;5041983;28;20025;-74
2022/05/30 12:12:38;;;;;;;0.85;0.55;;;14.50;99.90;;;;;;5034830;28;20037;-74
2022/05/30 12:15:19;;;;;;;1.08;0.57;;;14.60;99.90;;;;;;5003445;28;20053;-76
2022/05/30 12:24:04;;;;;;;0.52;0.30;;;14.90;99.90;;;;;;5003686;28;20041;-75
2022/05/30 12:26:56;;;;;;;0.82;0.47;;;15.10;99.90;;;;;;5003667;28;20518;-76
2022/05/30 12:29:37;;;;;;;4.60;1.02;;;15.20;99.90;;;;;;5002740;28;20026;-74
2022/05/30 12:32:32;;;;;;;0.30;0.20;;;15.30;99.90;;;;;;5002372;28;20088;-73
2022/05/30 12:34:58;;;;;;;;;;;15.10;99.90;;;;;;5003262;28;20041;-74
2022/05/30 12:37:45;;;;;;;2.05;0.75;;;15.00;99.90;;;;;;5002921;28;19921;-75
2022/05/30 12:40:26;;;;;;;1.30;0.52;;;14.90;99.90;;;;;;5003593;28;20033;-76
2022/05/30 12:43:06;;;;;;;0.65;0.43;;;14.80;99.90;;;;;;5003285;28;20068;-75
2022/05/30 12:45:42;;;;;;;1.95;0.60;;;14.60;99.90;;;;;;5002691;28;20026;-75
2022/05/30 12:48:31;;;;;;;0.55;0.47;;;14.50;99.90;;;;;;5002463;28;20026;-74
2022/05/30 12:51:09;;;;;;;5.35;0.88;;;14.40;99.90;;;;;;5002967;28;20037;-75
2022/05/30 12:53:54;;;;;;;1.63;0.45;;;14.30;99.90;;;;;;5003318;28;20066;-74
2022/05/30 12:56:38;;;;;;;1.08;0.45;;;14.20;99.90;;;;;;5001671;28;20051;-76
2022/05/30 12:59:18;;;;;;;0.65;0.35;;;14.20;99.90;;;;;;5002636;28;20085;-74
2022/05/30 13:01:43;;;;;;;0.45;0.38;;;14.20;99.90;;;;;;5001680;28;20042;-74
2022/05/30 13:04:15;;;;;;;1.13;0.57;;;14.30;99.90;;;;;;5003292;28;20415;-74
2022/05/30 13:06:52;;;;;;;0.68;0.45;;;14.40;99.90;;;;;;5002026;28;20033;-77
2022/05/30 13:09:20;;;;;;;0.90;0.55;;;14.40;99.90;;;;;;5002487;28;20026;-73
2022/05/30 13:12:11;;;;;;;0.85;0.45;;;14.40;99.90;;;;;;5001149;28;20014;-74
2022/05/30 13:14:36;;;;;;;1.45;0.50;;;14.30;99.90;;;;;;5002706;28;20035;-73
2022/05/30 13:17:26;;;;;;;0.35;0.30;;;14.30;99.90;;;;;;5000695;28;20038;-73
2022/05/30 13:20:02;;;;;;;0.50;0.38;;;14.20;99.90;;;;;;5002065;28;20022;-74
2022/05/30 13:22:45;;;;;;;0.75;0.50;;;14.10;99.90;;;;;;5000966;28;20440;-73
2022/05/30 13:25:22;;;;;;;1.15;0.63;;;14.00;99.90;;;;;;5002250;28;20023;-74
2022/05/30 13:27:48;;;;;;;0.85;0.52;;;13.90;99.90;;;;;;5001813;28;20026;-74
2022/05/30 13:30:23;;;;;;;2.33;0.80;;;13.80;99.90;;;;;;5002515;28;20022;-75
2022/05/30 13:32:50;;;;;;;1.00;0.60;;;13.70;99.90;;;;;;5001869;28;20037;-74
2022/05/30 13:35:19;;;;;;;2.60;0.80;;;13.80;99.90;;;;;;5001203;28;20101;-73